createdAt,value
2023-12-05T00:03:47.240Z,-2.06
2023-12-05T00:08:49.754Z,-2.06
2023-12-05T00:13:52.240Z,-1.94
2023-12-05T00:18:54.926Z,-1.95
2023-12-05T00:23:57.569Z,-1.99
2023-12-05T00:29:00.078Z,-1.87
2023-12-05T00:34:02.820Z,-1.88
2023-12-05T00:39:05.581Z,-1.87
2023-12-05T00:44:08.512Z,-1.88
2023-12-05T00:49:11.028Z,-1.76
2023-12-05T00:54:14.580Z,-1.69
2023-12-05T00:59:18.388Z,-1.60
2023-12-05T01:04:21.224Z,-1.62
2023-12-05T01:09:25.586Z,-1.55
2023-12-05T01:14:28.115Z,-1.45
2023-12-05T01:19:30.554Z,-1.52
2023-12-05T01:24:33.208Z,-1.54
2023-12-05T01:29:35.686Z,-1.49
2023-12-05T01:34:38.094Z,-1.49
2023-12-05T01:39:40.524Z,-1.37
2023-12-05T01:44:43.580Z,-1.33
2023-12-05T01:49:46.111Z,-1.20
2023-12-05T01:54:48.596Z,-1.09
2023-12-05T01:59:51.006Z,-1.02
2023-12-05T02:04:53.767Z,-0.90
2023-12-05T02:09:56.256Z,-0.84
2023-12-05T02:14:59.587Z,-0.83
2023-12-05T02:20:02.253Z,-0.78
2023-12-05T02:25:04.652Z,-0.70
2023-12-05T02:30:07.040Z,-0.64
2023-12-05T02:35:09.469Z,-0.72
2023-12-05T02:40:12.305Z,-0.78
2023-12-05T02:45:14.747Z,-0.82
2023-12-05T02:50:17.165Z,-0.78
2023-12-05T02:55:19.591Z,-0.66
2023-12-05T03:00:22.203Z,-0.59
2023-12-05T03:05:24.749Z,-0.57
2023-12-05T03:10:27.210Z,-0.57
2023-12-05T03:15:30.015Z,-0.47
2023-12-05T03:20:32.629Z,-0.46
2023-12-05T03:25:35.196Z,-0.41
2023-12-05T03:30:37.697Z,-0.36
2023-12-05T03:35:40.150Z,-0.36
2023-12-05T03:40:42.540Z,-0.38
2023-12-05T03:45:45.083Z,-0.40
2023-12-05T03:50:47.669Z,-0.43
2023-12-05T03:55:50.013Z,-0.34
2023-12-05T04:00:52.436Z,-0.34
2023-12-05T04:05:54.986Z,-0.39
2023-12-05T04:10:57.432Z,-0.39
2023-12-05T04:15:59.918Z,-0.32
2023-12-05T04:21:02.459Z,-0.35
2023-12-05T04:26:04.904Z,-0.43
2023-12-05T04:31:07.471Z,-0.29
2023-12-05T04:36:09.884Z,-0.31
2023-12-05T04:41:12.384Z,-0.39
2023-12-05T04:46:14.804Z,-0.43
2023-12-05T04:51:17.229Z,-0.46
2023-12-05T04:56:19.704Z,-0.51
2023-12-05T05:01:22.090Z,-0.55
2023-12-05T05:06:24.502Z,-0.51
2023-12-05T05:11:26.969Z,-0.52
2023-12-05T05:16:29.466Z,-0.52
2023-12-05T05:21:32.515Z,-0.57
2023-12-05T05:26:35.165Z,-0.51
2023-12-05T05:31:37.797Z,-0.60
2023-12-05T05:36:40.191Z,-0.71
2023-12-05T05:41:42.850Z,-0.81
2023-12-05T05:46:45.187Z,-0.76
2023-12-05T05:51:47.715Z,-0.78
2023-12-05T05:56:50.209Z,-0.76
2023-12-05T06:01:52.624Z,-0.65
2023-12-05T06:06:55.336Z,-0.60
2023-12-05T06:11:57.824Z,-0.57
2023-12-05T06:17:00.248Z,-0.53
2023-12-05T06:22:02.706Z,-0.48
2023-12-05T06:27:05.523Z,-0.48
2023-12-05T06:32:08.018Z,-0.41
2023-12-05T06:37:10.564Z,-0.36
2023-12-05T06:42:12.984Z,-0.42
2023-12-05T06:47:16.099Z,-0.47
2023-12-05T06:52:20.521Z,-0.48
2023-12-05T06:57:22.967Z,-0.50
2023-12-05T07:02:25.517Z,-0.48
2023-12-05T07:07:27.933Z,-0.51
2023-12-05T07:12:30.685Z,-0.41
2023-12-05T07:17:33.218Z,-0.30
2023-12-05T07:22:36.756Z,-0.16
2023-12-05T07:27:39.243Z,-0.11
2023-12-05T07:32:43.052Z,0.10
2023-12-05T07:37:45.688Z,0.22
2023-12-05T07:42:48.147Z,0.34
2023-12-05T07:47:50.622Z,0.43
2023-12-05T07:52:53.087Z,0.42
2023-12-05T07:57:55.558Z,0.58
2023-12-05T08:02:59.178Z,0.66
2023-12-05T08:08:01.754Z,0.84
2023-12-05T08:13:04.424Z,1.00
2023-12-05T08:18:06.925Z,1.11
2023-12-05T08:23:10.242Z,1.10
2023-12-05T08:28:12.637Z,1.32
2023-12-05T08:33:15.249Z,1.29
2023-12-05T08:38:17.756Z,1.50
2023-12-05T08:43:20.137Z,1.62
2023-12-05T08:48:22.978Z,1.30
2023-12-05T08:53:25.671Z,1.13
2023-12-05T08:58:28.153Z,1.10
2023-12-05T09:03:30.640Z,1.39
2023-12-05T09:08:33.321Z,1.87
2023-12-05T09:13:35.986Z,2.04
2023-12-05T09:18:38.471Z,2.60
2023-12-05T09:23:41.116Z,2.46
2023-12-05T09:28:43.692Z,2.44
2023-12-05T09:33:46.196Z,2.36
2023-12-05T09:38:48.588Z,2.37
2023-12-05T09:43:52.606Z,2.74
2023-12-05T09:48:55.648Z,2.66
2023-12-05T09:53:58.235Z,2.67
2023-12-05T09:59:00.660Z,2.83
2023-12-05T10:04:03.404Z,2.94
2023-12-05T10:09:07.545Z,3.31
2023-12-05T10:14:09.965Z,3.94
2023-12-05T10:19:12.742Z,3.72
2023-12-05T10:24:16.045Z,3.82
2023-12-05T10:29:18.477Z,3.47
2023-12-05T10:34:21.049Z,3.70
2023-12-05T10:39:23.457Z,3.63
2023-12-05T10:44:25.882Z,3.33
2023-12-05T10:49:28.572Z,3.36
2023-12-05T10:54:31.086Z,3.21
2023-12-05T10:59:33.555Z,3.12
2023-12-05T11:04:36.009Z,3.53
2023-12-05T11:09:38.537Z,3.64
2023-12-05T11:14:41.118Z,4.05
2023-12-05T11:19:44.365Z,3.80
2023-12-05T11:24:46.797Z,4.11
2023-12-05T11:29:49.210Z,3.81
2023-12-05T11:34:51.754Z,4.16
2023-12-05T11:39:54.295Z,3.99
2023-12-05T11:44:56.730Z,4.59
2023-12-05T11:50:01.658Z,4.13
2023-12-05T11:55:05.795Z,4.55
2023-12-05T12:00:10.553Z,5.04
2023-12-05T12:05:13.461Z,5.07
2023-12-05T12:10:16.131Z,4.68
2023-12-05T12:15:20.252Z,4.38
2023-12-05T12:20:23.494Z,4.06
2023-12-05T12:25:26.031Z,4.28
2023-12-05T12:30:30.250Z,4.22
2023-12-05T12:35:32.725Z,4.28
2023-12-05T12:40:35.393Z,4.55
2023-12-05T12:45:37.996Z,4.52
2023-12-05T12:50:40.955Z,4.54
2023-12-05T12:55:43.672Z,4.31
2023-12-05T13:00:46.533Z,3.71
2023-12-05T13:05:49.117Z,3.94
2023-12-05T13:10:51.712Z,3.99
2023-12-05T13:15:54.459Z,3.89
2023-12-05T13:20:56.969Z,3.94
2023-12-05T13:25:59.362Z,3.97
2023-12-05T13:31:01.822Z,3.87
2023-12-05T13:36:04.545Z,3.76
2023-12-05T13:41:07.036Z,3.67
2023-12-05T13:46:09.580Z,3.61
2023-12-05T13:51:12.018Z,3.39
2023-12-05T13:56:14.411Z,3.24
2023-12-05T14:01:16.898Z,3.23
2023-12-05T14:06:19.970Z,3.28
2023-12-05T14:11:22.519Z,3.07
2023-12-05T14:16:24.949Z,3.00
2023-12-05T14:21:27.996Z,2.94
2023-12-05T14:26:31.408Z,2.78
2023-12-05T14:31:33.852Z,2.75
2023-12-05T14:36:36.268Z,2.61
2023-12-05T14:41:38.727Z,2.63
2023-12-05T14:46:41.195Z,2.65
2023-12-05T14:51:43.849Z,2.43
2023-12-05T14:56:46.654Z,2.46
2023-12-05T15:01:49.107Z,2.41
2023-12-05T15:06:51.834Z,2.32
2023-12-05T15:11:54.372Z,2.26
2023-12-05T15:16:56.993Z,2.10
2023-12-05T15:21:59.465Z,2.12
2023-12-05T15:27:03.685Z,2.07
2023-12-05T15:32:06.130Z,2.12
2023-12-05T15:37:08.611Z,2.11
2023-12-05T15:42:11.098Z,2.04
2023-12-05T15:47:16.141Z,2.07
2023-12-05T15:52:18.813Z,1.93
2023-12-05T15:57:22.019Z,2.01
2023-12-05T16:02:26.425Z,2.06
2023-12-05T16:07:29.270Z,2.03
2023-12-05T16:12:31.898Z,2.08
2023-12-05T16:17:34.421Z,1.96
2023-12-05T16:22:36.996Z,1.93
2023-12-05T16:27:39.479Z,1.92
2023-12-05T16:32:42.810Z,1.84
2023-12-05T16:37:45.843Z,1.79
2023-12-05T16:42:48.309Z,1.73
2023-12-05T16:47:52.150Z,1.77
2023-12-05T16:52:54.649Z,1.77
2023-12-05T16:57:57.374Z,1.70
2023-12-05T17:03:00.080Z,1.59
2023-12-05T17:08:02.601Z,1.49
2023-12-05T17:13:05.167Z,1.49
2023-12-05T17:18:07.604Z,1.61
2023-12-05T17:23:10.588Z,1.74
2023-12-05T17:28:13.057Z,1.77
2023-12-05T17:33:15.493Z,1.89
2023-12-05T17:38:18.471Z,1.87
2023-12-05T17:43:21.043Z,1.83
2023-12-05T17:48:23.559Z,1.72
2023-12-05T17:53:28.950Z,1.68
2023-12-05T17:58:32.530Z,1.62
2023-12-05T18:03:35.556Z,1.55
2023-12-05T18:08:37.986Z,1.50
2023-12-05T18:13:40.619Z,1.45
2023-12-05T18:18:43.560Z,1.37
2023-12-05T18:23:46.283Z,1.35
2023-12-05T18:28:50.086Z,1.27
2023-12-05T18:33:52.867Z,1.19
2023-12-05T18:38:55.401Z,1.14
2023-12-05T18:43:57.906Z,1.06
2023-12-05T18:49:00.371Z,1.10
2023-12-05T18:54:03.013Z,1.16
2023-12-05T18:59:05.541Z,1.08
2023-12-05T19:04:08.107Z,1.03
2023-12-05T19:09:10.729Z,1.11
2023-12-05T19:14:13.105Z,1.04
2023-12-05T19:19:15.633Z,1.04
2023-12-05T19:24:18.329Z,1.00
2023-12-05T19:29:22.406Z,0.95
2023-12-05T19:34:35.118Z,1.06
2023-12-05T19:39:43.509Z,1.01
2023-12-05T19:44:46.078Z,1.02
2023-12-05T19:49:48.724Z,0.96
2023-12-05T19:54:51.233Z,0.82
2023-12-05T19:59:53.842Z,0.74
2023-12-05T20:04:56.340Z,0.65
2023-12-05T20:09:58.953Z,0.69
2023-12-05T20:15:01.574Z,0.60
2023-12-05T20:20:04.751Z,0.62
2023-12-05T20:25:07.407Z,0.51
2023-12-05T20:30:09.893Z,0.51
2023-12-05T20:35:12.264Z,0.83
2023-12-05T20:40:14.881Z,0.63
2023-12-05T20:45:17.597Z,0.51
2023-12-05T20:50:20.055Z,0.54
2023-12-05T20:55:22.578Z,0.50
2023-12-05T21:00:24.991Z,0.56
2023-12-05T21:05:27.582Z,0.65
2023-12-05T21:10:30.061Z,0.54
2023-12-05T21:15:33.310Z,0.63
2023-12-05T21:20:35.781Z,0.55
2023-12-05T21:25:38.657Z,0.46
2023-12-05T21:30:41.185Z,0.48
2023-12-05T21:35:43.693Z,0.44
2023-12-05T21:40:46.073Z,0.41
2023-12-05T21:45:48.714Z,0.46
2023-12-05T21:50:51.322Z,0.52
2023-12-05T21:55:55.014Z,0.52
2023-12-05T22:00:57.865Z,0.50
2023-12-05T22:06:00.301Z,0.54
2023-12-05T22:11:02.812Z,0.54
2023-12-05T22:16:05.282Z,0.62
2023-12-05T22:21:07.976Z,0.62
2023-12-05T22:26:10.564Z,0.81
2023-12-05T22:31:13.339Z,0.86
2023-12-05T22:36:18.050Z,0.76
2023-12-05T22:41:20.404Z,0.79
2023-12-05T22:46:22.741Z,0.77
2023-12-05T22:51:26.794Z,0.80
2023-12-05T22:56:29.182Z,0.80
2023-12-05T23:01:32.192Z,0.78
2023-12-05T23:06:34.698Z,0.80
2023-12-05T23:11:37.312Z,0.85
2023-12-05T23:16:39.709Z,0.90
2023-12-05T23:21:42.224Z,1.05
2023-12-05T23:26:44.693Z,1.05
2023-12-05T23:31:47.070Z,1.04
2023-12-05T23:36:50.164Z,1.07
2023-12-05T23:41:52.577Z,1.13
2023-12-05T23:46:54.930Z,1.19
2023-12-05T23:51:57.404Z,1.26
2023-12-05T23:56:59.869Z,1.21
